createdAt,value
2022-10-17T00:02:26.743Z,100.00
2022-10-17T00:04:53.992Z,100.00
2022-10-17T00:07:20.959Z,100.00
2022-10-17T00:09:47.920Z,100.00
2022-10-17T00:12:15.178Z,100.00
2022-10-17T00:14:42.291Z,100.00
2022-10-17T00:17:09.313Z,100.00
2022-10-17T00:19:36.591Z,100.00
2022-10-17T00:22:03.589Z,100.00
2022-10-17T00:24:31.644Z,100.00
2022-10-17T00:26:58.963Z,100.00
2022-10-17T00:29:26.049Z,100.00
2022-10-17T00:31:57.238Z,100.00
2022-10-17T00:34:24.975Z,100.00
2022-10-17T00:36:52.313Z,100.00
2022-10-17T00:39:19.367Z,100.00
2022-10-17T00:41:47.477Z,100.00
2022-10-17T00:44:29.888Z,100.00
2022-10-17T00:47:10.525Z,100.00
2022-10-17T00:49:38.819Z,100.00
2022-10-17T00:52:29.745Z,100.00
2022-10-17T00:55:13.452Z,100.00
2022-10-17T00:57:41.548Z,100.00
2022-10-17T01:00:10.518Z,100.00
2022-10-17T01:02:38.076Z,100.00
2022-10-17T01:05:06.686Z,100.00
2022-10-17T01:07:37.217Z,100.00
2022-10-17T01:10:05.665Z,100.00
2022-10-17T01:13:22.934Z,100.00
2022-10-17T01:15:57.198Z,100.00
2022-10-17T01:18:41.881Z,100.00
2022-10-17T01:21:14.748Z,100.00
2022-10-17T01:24:06.797Z,100.00
2022-10-17T01:26:39.978Z,100.00
2022-10-17T01:29:23.901Z,100.00
2022-10-17T01:32:00.048Z,100.00
2022-10-17T01:34:39.204Z,100.00
2022-10-17T01:37:15.700Z,100.00
2022-10-17T01:39:46.979Z,100.00
2022-10-17T01:42:38.092Z,100.00
2022-10-17T01:45:14.932Z,100.00
2022-10-17T01:47:42.380Z,100.00
2022-10-17T01:50:14.471Z,100.00
2022-10-17T01:52:46.630Z,100.00
2022-10-17T01:55:21.539Z,100.00
2022-10-17T01:57:51.650Z,100.00
2022-10-17T02:00:22.049Z,100.00
2022-10-17T02:02:54.309Z,100.00
2022-10-17T02:05:25.409Z,100.00
2022-10-17T02:07:52.681Z,100.00
2022-10-17T02:10:31.017Z,100.00
2022-10-17T02:13:07.737Z,100.00
2022-10-17T02:16:00.090Z,100.00
2022-10-17T02:19:16.152Z,100.00
2022-10-17T02:21:58.332Z,100.00
2022-10-17T02:24:45.611Z,100.00
2022-10-17T02:27:30.328Z,100.00
2022-10-17T02:30:11.681Z,100.00
2022-10-17T02:32:56.192Z,100.00
2022-10-17T02:35:26.227Z,100.00
2022-10-17T02:37:53.606Z,100.00
2022-10-17T02:40:22.130Z,100.00
2022-10-17T02:42:49.743Z,100.00
2022-10-17T02:45:17.059Z,100.00
2022-10-17T02:47:51.457Z,100.00
2022-10-17T02:50:22.857Z,100.00
2022-10-17T02:52:56.921Z,100.00
2022-10-17T02:55:47.928Z,100.00
2022-10-17T02:58:25.664Z,100.00
2022-10-17T03:00:53.425Z,100.00
2022-10-17T03:03:26.183Z,100.00
2022-10-17T03:05:54.088Z,100.00
2022-10-17T03:08:22.721Z,100.00
2022-10-17T03:10:50.140Z,100.00
2022-10-17T03:13:19.058Z,100.00
2022-10-17T03:15:46.367Z,100.00
2022-10-17T03:18:14.068Z,100.00
2022-10-17T03:20:41.503Z,100.00
2022-10-17T03:23:08.722Z,100.00
2022-10-17T03:25:36.199Z,100.00
2022-10-17T03:28:05.514Z,100.00
2022-10-17T03:30:33.577Z,100.00
2022-10-17T03:33:00.845Z,100.00
2022-10-17T03:35:28.276Z,100.00
2022-10-17T03:37:56.212Z,100.00
2022-10-17T03:40:23.558Z,100.00
2022-10-17T03:42:51.189Z,100.00
2022-10-17T03:45:18.354Z,100.00
2022-10-17T03:47:45.752Z,100.00
2022-10-17T03:50:13.098Z,100.00
2022-10-17T03:52:48.088Z,100.00
2022-10-17T03:55:16.145Z,100.00
2022-10-17T03:57:45.441Z,100.00
2022-10-17T04:00:13.665Z,100.00
2022-10-17T04:02:41.241Z,100.00
2022-10-17T04:05:09.601Z,100.00
2022-10-17T04:07:37.644Z,100.00
2022-10-17T04:10:05.681Z,100.00
2022-10-17T04:12:33.111Z,100.00
2022-10-17T04:15:00.168Z,100.00
2022-10-17T04:17:27.483Z,100.00
2022-10-17T04:19:54.781Z,100.00
2022-10-17T04:22:22.838Z,100.00
2022-10-17T04:24:49.841Z,100.00
2022-10-17T04:27:17.993Z,100.00
2022-10-17T04:29:45.226Z,100.00
2022-10-17T04:32:12.842Z,100.00
2022-10-17T04:34:40.352Z,100.00
2022-10-17T04:37:07.424Z,100.00
2022-10-17T04:39:34.620Z,100.00
2022-10-17T04:42:02.077Z,100.00
2022-10-17T04:44:30.980Z,100.00
2022-10-17T04:46:58.144Z,100.00
2022-10-17T04:49:25.728Z,100.00
2022-10-17T04:51:53.011Z,100.00
2022-10-17T04:54:23.916Z,100.00
2022-10-17T04:56:52.151Z,100.00
2022-10-17T04:59:19.385Z,100.00
2022-10-17T05:01:46.805Z,100.00
2022-10-17T05:04:14.127Z,100.00
2022-10-17T05:06:41.151Z,100.00
2022-10-17T05:09:09.744Z,100.00
2022-10-17T05:11:37.557Z,100.00
2022-10-17T05:14:04.823Z,100.00
2022-10-17T05:16:32.565Z,100.00
2022-10-17T05:19:00.194Z,100.00
2022-10-17T05:21:29.849Z,100.00
2022-10-17T05:23:57.400Z,100.00
2022-10-17T05:26:25.286Z,100.00
2022-10-17T05:28:53.181Z,100.00
2022-10-17T05:31:20.859Z,100.00
2022-10-17T05:33:48.258Z,100.00
2022-10-17T05:36:15.328Z,100.00
2022-10-17T05:38:43.806Z,100.00
2022-10-17T05:41:11.494Z,100.00
2022-10-17T05:43:38.686Z,100.00
2022-10-17T05:46:06.604Z,100.00
2022-10-17T05:48:34.701Z,100.00
2022-10-17T05:51:06.209Z,100.00
2022-10-17T05:53:35.279Z,100.00
2022-10-17T05:56:05.114Z,100.00
2022-10-17T05:58:52.347Z,100.00
2022-10-17T06:01:21.391Z,100.00
2022-10-17T06:03:48.805Z,100.00
2022-10-17T06:06:16.873Z,100.00
2022-10-17T06:08:45.449Z,100.00
2022-10-17T06:11:13.350Z,100.00
2022-10-17T06:13:40.509Z,100.00
2022-10-17T06:16:08.603Z,100.00
2022-10-17T06:18:35.959Z,100.00
2022-10-17T06:21:12.781Z,100.00
2022-10-17T06:23:41.513Z,100.00
2022-10-17T06:26:09.656Z,100.00
2022-10-17T06:28:37.286Z,100.00
2022-10-17T06:31:09.445Z,100.00
2022-10-17T06:33:36.601Z,99.55
2022-10-17T06:36:05.319Z,97.15
2022-10-17T06:38:34.480Z,97.08
2022-10-17T06:41:21.396Z,96.22
2022-10-17T06:43:52.264Z,98.24
2022-10-17T06:46:21.126Z,95.47
2022-10-17T06:48:50.512Z,93.96
2022-10-17T06:51:18.185Z,91.72
2022-10-17T06:53:45.404Z,93.00
2022-10-17T06:56:12.607Z,93.72
2022-10-17T06:58:40.813Z,93.38
2022-10-17T07:01:10.898Z,94.20
2022-10-17T07:03:38.364Z,91.68
2022-10-17T07:06:06.142Z,92.66
2022-10-17T07:08:33.585Z,91.82
2022-10-17T07:11:12.392Z,91.42
2022-10-17T07:13:39.904Z,87.82
2022-10-17T07:16:07.675Z,87.51
2022-10-17T07:18:35.343Z,88.28
2022-10-17T07:21:03.806Z,86.64
2022-10-17T07:23:31.508Z,85.79
2022-10-17T07:26:02.673Z,89.33
2022-10-17T07:28:30.166Z,86.96
2022-10-17T07:31:14.882Z,84.42
2022-10-17T07:33:43.418Z,84.21
2022-10-17T07:36:10.878Z,86.81
2022-10-17T07:38:38.261Z,84.85
2022-10-17T07:41:07.800Z,84.42
2022-10-17T07:43:36.438Z,86.04
2022-10-17T07:46:08.396Z,87.30
2022-10-17T07:48:35.649Z,84.95
2022-10-17T07:51:04.616Z,82.29
2022-10-17T07:53:32.278Z,82.26
2022-10-17T07:55:59.300Z,81.38
2022-10-17T07:58:26.449Z,80.33
2022-10-17T08:00:53.881Z,81.64
2022-10-17T08:03:21.279Z,79.43
2022-10-17T08:05:48.382Z,83.01
2022-10-17T08:08:15.370Z,79.87
2022-10-17T08:10:42.691Z,79.24
2022-10-17T08:13:09.751Z,78.70
2022-10-17T08:15:38.075Z,78.49
2022-10-17T08:18:05.507Z,80.74
2022-10-17T08:20:32.569Z,79.92
2022-10-17T08:22:59.563Z,76.28
2022-10-17T08:25:26.995Z,77.09
2022-10-17T08:27:54.110Z,77.27
2022-10-17T08:30:21.287Z,75.03
2022-10-17T08:32:48.564Z,77.24
2022-10-17T08:35:15.617Z,75.92
2022-10-17T08:37:42.663Z,72.88
2022-10-17T08:40:19.506Z,75.86
2022-10-17T08:42:49.419Z,72.84
2022-10-17T08:45:22.471Z,77.73
2022-10-17T08:47:53.456Z,76.06
2022-10-17T08:50:43.486Z,73.35
2022-10-17T08:53:16.208Z,73.76
2022-10-17T08:55:46.935Z,73.79
2022-10-17T08:58:22.861Z,73.08
2022-10-17T09:04:13.995Z,75.81
2022-10-17T09:06:55.626Z,73.72
2022-10-17T09:09:30.711Z,73.78
2022-10-17T09:12:23.981Z,71.78
2022-10-17T09:15:09.656Z,72.16
2022-10-17T09:17:53.330Z,72.32
2022-10-17T09:20:30.290Z,71.54
2022-10-17T09:23:04.295Z,69.66
2022-10-17T09:25:49.945Z,71.75
2022-10-17T09:28:38.290Z,72.14
2022-10-17T09:31:22.296Z,72.83
2022-10-17T09:33:55.353Z,70.27
2022-10-17T09:36:31.300Z,69.93
2022-10-17T09:39:00.975Z,71.73
2022-10-17T09:41:49.741Z,70.21
